Time;durP1;ratioP1;P1;durP2;ratioP2;P2;SDS_P1;SDS_P2;PMS_P1;PMS_P2;Temp;Humidity;BMP_temperature;BMP_pressure;BME280_temperature;BME280_humidity;BME280_pressure;Samples;Min_cycle;Max_cycle;Signal;HPM_P1;HPM_P2
2023/01/01 00:01:39;;;;;;;;;;;;;;;4.35;88.93;101202.44;5089261;28;19920;-36
2023/01/01 00:04:04;;;;;;;;;;;;;;;4.10;89.19;101195.75;5092468;28;19969;-36
2023/01/01 00:06:29;;;;;;;;;;;;;;;4.20;90.29;101186.09;5092425;28;19912;-36
2023/01/01 00:11:39;;;;;;;;;;;;;;;4.03;90.50;101200.66;5090086;28;19923;-36
2023/01/01 00:14:04;;;;;;;;;;;;;;;4.10;89.09;101206.28;5091846;28;19916;-37
2023/01/01 00:16:29;;;;;;;;;;;;;;;4.01;89.52;101205.22;5091329;28;20267;-36
2023/01/01 00:18:54;;;;;;;;;;;;;;;4.17;88.08;101202.19;5091603;28;19968;-36
2023/01/01 00:21:20;;;;;;;;;;;;;;;4.07;88.73;101204.75;5091372;28;20363;-36
2023/01/01 00:23:45;;;;;;;;;;;;;;;4.15;89.51;101209.38;5091585;28;19919;-36
2023/01/01 00:26:14;;;;;;;;;;;;;;;4.38;88.77;101218.03;5091357;28;19969;-36
2023/01/01 00:28:40;;;;;;;;;;;;;;;4.34;88.61;101208.69;5091651;28;20540;-37
2023/01/01 00:31:06;;;;;;;;;;;;;;;4.11;88.63;101218.47;5090993;28;19912;-36
2023/01/01 00:33:32;;;;;;;;;;;;;;;3.96;89.49;101206.56;5091660;28;19935;-36
2023/01/01 00:36:04;;;;;;;;;;;;;;;3.87;89.30;101203.72;5091458;28;20315;-36
2023/01/01 00:38:29;;;;;;;;;;;;;;;4.05;89.30;101222.44;5091197;28;19916;-36
2023/01/01 00:40:54;;;;;;;;;;;;;;;3.98;89.56;101217.78;5091141;28;19912;-36
2023/01/01 00:43:20;;;;;;;;;;;;;;;4.03;89.44;101220.91;5091473;28;20441;-37
2023/01/01 00:45:47;;;;;;;;;;;;;;;3.97;89.77;101224.03;5091044;28;19912;-37
2023/01/01 00:48:12;;;;;;;;;;;;;;;3.94;89.24;101233.03;5091088;28;19912;-37
2023/01/01 00:50:38;;;;;;;;;;;;;;;3.74;89.33;101236.44;5091125;28;20073;-36
2023/01/01 00:53:03;;;;;;;;;;;;;;;3.76;89.03;101240.59;5090943;28;19999;-37
2023/01/01 00:55:28;;;;;;;;;;;;;;;3.70;89.00;101234.03;5091018;28;19916;-37
2023/01/01 00:57:53;;;;;;;;;;;;;;;3.81;88.60;101233.19;5090826;28;19971;-37
2023/01/01 01:00:19;;;;;;;;;;;;;;;3.78;89.90;101233.41;5090923;28;19943;-37
2023/01/01 01:02:44;;;;;;;;;;;;;;;3.74;89.57;101239.06;5091242;28;19912;-37
2023/01/01 01:05:09;;;;;;;;;;;;;;;3.66;88.33;101237.88;5090780;28;19917;-37
2023/01/01 01:07:35;;;;;;;;;;;;;;;3.64;89.93;101237.16;5090901;28;19947;-37
2023/01/01 01:10:00;;;;;;;;;;;;;;;3.78;91.75;101233.41;5090725;28;19941;-37
2023/01/01 01:12:26;;;;;;;;;;;;;;;3.62;90.00;101227.72;5090581;28;19919;-37
2023/01/01 01:14:51;;;;;;;;;;;;;;;3.62;89.47;101225.09;5090729;28;19923;-37
2023/01/01 01:17:16;;;;;;;;;;;;;;;3.65;87.45;101222.19;5090525;28;20357;-37
2023/01/01 01:19:41;;;;;;;;;;;;;;;3.52;87.57;101225.81;5090388;28;19912;-37
2023/01/01 01:22:07;;;;;;;;;;;;;;;3.28;88.48;101219.84;5090900;28;20395;-37
2023/01/01 01:24:32;;;;;;;;;;;;;;;3.32;88.98;101219.47;5090664;28;20342;-37
2023/01/01 01:26:57;;;;;;;;;;;;;;;3.29;89.62;101221.50;5090647;28;19916;-37
2023/01/01 01:29:23;;;;;;;;;;;;;;;3.35;89.85;101222.81;5090417;28;19912;-37
2023/01/01 01:31:48;;;;;;;;;;;;;;;3.23;89.98;101222.00;5090545;28;20011;-37
2023/01/01 01:34:14;;;;;;;;;;;;;;;3.65;89.09;101215.13;5090344;28;19948;-37
2023/01/01 01:36:39;;;;;;;;;;;;;;;3.55;88.46;101216.00;5090455;28;20338;-37
2023/01/01 01:39:05;;;;;;;;;;;;;;;3.60;87.49;101219.06;5090445;28;19924;-37
2023/01/01 01:41:30;;;;;;;;;;;;;;;3.32;88.80;101208.94;5090582;28;20021;-37
2023/01/01 01:43:57;;;;;;;;;;;;;;;3.29;88.85;101209.22;5090260;28;20282;-37
2023/01/01 01:46:37;;;;;;;;;;;;;;;3.30;88.22;101199.50;5090103;28;19995;-37
2023/01/01 01:49:09;;;;;;;;;;;;;;;3.03;88.08;101202.50;5090510;28;19975;-37
2023/01/01 01:51:37;;;;;;;;;;;;;;;3.13;88.63;101206.09;5090623;28;19912;-37
2023/01/01 01:54:04;;;;;;;;;;;;;;;3.34;88.66;101206.19;5090623;28;19946;-36
2023/01/01 01:56:44;;;;;;;;;;;;;;;3.38;88.14;101197.09;5090241;28;19966;-37
2023/01/01 01:59:09;;;;;;;;;;;;;;;3.13;88.56;101196.41;5090290;28;20383;-36
2023/01/01 02:01:34;;;;;;;;;;;;;;;3.05;89.16;101196.16;5090237;28;19962;-37
2023/01/01 02:04:01;;;;;;;;;;;;;;;2.98;90.09;101199.38;5092074;28;19912;-37
2023/01/01 02:06:26;;;;;;;;;;;;;;;3.05;90.20;101206.69;5094342;28;19962;-37
2023/01/01 02:08:52;;;;;;;;;;;;;;;3.07;89.17;101204.78;5094235;28;19912;-38
2023/01/01 02:11:18;;;;;;;;;;;;;;;2.94;89.16;101201.41;5094070;28;20252;-37
2023/01/01 02:13:43;;;;;;;;;;;;;;;2.97;88.03;101208.22;5094392;28;19912;-37
2023/01/01 02:16:12;;;;;;;;;;;;;;;2.93;89.56;101212.88;5093858;28;20029;-37
2023/01/01 02:18:43;;;;;;;;;;;;;;;2.90;89.92;101203.44;5094287;28;19917;-37
2023/01/01 02:21:16;;;;;;;;;;;;;;;3.11;89.28;101213.25;5093973;28;20427;-37
2023/01/01 02:23:54;;;;;;;;;;;;;;;3.12;88.23;101202.63;5093928;28;19919;-37
2023/01/01 02:26:19;;;;;;;;;;;;;;;2.96;88.95;101202.13;5093923;28;19926;-37
2023/01/01 02:28:47;;;;;;;;;;;;;;;2.86;88.74;101212.53;5093670;28;20006;-37
2023/01/01 02:31:14;;;;;;;;;;;;;;;2.73;89.89;101207.34;5093448;28;19916;-37
2023/01/01 02:33:41;;;;;;;;;;;;;;;2.67;90.29;101210.47;5093572;28;19918;-37
2023/01/01 02:36:07;;;;;;;;;;;;;;;2.73;89.81;101203.91;5093250;28;19955;-36
2023/01/01 02:38:35;;;;;;;;;;;;;;;2.69;88.66;101212.97;5093277;28;19912;-37
2023/01/01 02:41:02;;;;;;;;;;;;;;;2.60;89.07;101211.03;5093065;28;19920;-37
2023/01/01 02:43:28;;;;;;;;;;;;;;;2.69;88.48;101216.44;5093249;28;19973;-37
2023/01/01 02:45:53;;;;;;;;;;;;;;;2.58;88.56;101221.66;5093333;28;20018;-36
2023/01/01 02:48:38;;;;;;;;;;;;;;;2.52;89.86;101216.88;5092928;28;20390;-37
2023/01/01 02:51:08;;;;;;;;;;;;;;;2.62;89.61;101206.50;5092655;28;19923;-37
2023/01/01 02:53:36;;;;;;;;;;;;;;;2.63;90.54;101202.94;5092734;28;20002;-37
2023/01/01 02:56:01;;;;;;;;;;;;;;;2.82;89.84;101208.47;5093041;28;20452;-36
2023/01/01 03:01:52;;;;;;;;;;;;;;;2.73;89.28;101209.97;5093220;28;19986;-36
2023/01/01 03:04:17;;;;;;;;;;;;;;;2.51;90.18;101212.56;5093078;28;20399;-36
2023/01/01 03:06:53;;;;;;;;;;;;;;;2.56;89.80;101209.59;5092805;28;19973;-36
2023/01/01 03:09:28;;;;;;;;;;;;;;;2.58;88.25;101205.88;5093010;28;19920;-37
2023/01/01 03:11:57;;;;;;;;;;;;;;;2.42;89.87;101202.72;5092849;28;19927;-36
2023/01/01 03:14:26;;;;;;;;;;;;;;;2.38;89.45;101210.03;5092654;28;20213;-37
2023/01/01 03:16:57;;;;;;;;;;;;;;;2.49;89.62;101201.31;5092311;28;19928;-36
2023/01/01 03:19:24;;;;;;;;;;;;;;;2.62;89.40;101201.25;5092456;28;19912;-37
2023/01/01 03:21:52;;;;;;;;;;;;;;;2.89;90.00;101204.41;5092907;28;19943;-37
2023/01/01 03:24:21;;;;;;;;;;;;;;;2.85;90.56;101210.00;5092955;28;19995;-36
2023/01/01 03:26:49;;;;;;;;;;;;;;;2.67;90.23;101207.81;5092505;28;20010;-35
2023/01/01 03:29:15;;;;;;;;;;;;;;;2.71;89.55;101214.53;5092350;28;19947;-36
2023/01/01 03:31:43;;;;;;;;;;;;;;;2.62;88.85;101214.38;5092712;28;20273;-36
2023/01/01 03:34:15;;;;;;;;;;;;;;;2.47;89.79;101211.13;5092277;28;19923;-36
2023/01/01 03:36:43;;;;;;;;;;;;;;;2.22;90.61;101215.56;5092146;28;19916;-36
2023/01/01 03:39:08;;;;;;;;;;;;;;;2.24;90.98;101212.84;5092069;28;19919;-36
2023/01/01 03:41:36;;;;;;;;;;;;;;;2.47;90.80;101211.13;5092387;28;19912;-37
2023/01/01 03:44:01;;;;;;;;;;;;;;;2.70;90.43;101215.50;5092610;28;19963;-37
2023/01/01 03:46:29;;;;;;;;;;;;;;;2.70;90.05;101219.91;5092191;28;19916;-37
2023/01/01 03:48:55;;;;;;;;;;;;;;;2.81;89.71;101224.34;5092063;28;20438;-36
2023/01/01 03:51:38;;;;;;;;;;;;;;;2.78;89.38;101224.56;5091905;28;19995;-37
2023/01/01 03:54:11;;;;;;;;;;;;;;;2.85;90.01;101223.16;5092167;28;19912;-37
2023/01/01 03:56:44;;;;;;;;;;;;;;;2.81;89.35;101225.19;5091965;28;20008;-36
2023/01/01 03:59:28;;;;;;;;;;;;;;;2.89;89.56;101222.81;5092012;28;19912;-36
2023/01/01 04:01:56;;;;;;;;;;;;;;;2.90;89.46;101227.09;5091713;28;20295;-36
2023/01/01 04:04:22;;;;;;;;;;;;;;;2.88;88.09;101234.28;5091868;28;19920;-36
2023/01/01 04:06:48;;;;;;;;;;;;;;;2.65;88.72;101230.78;5091637;28;19928;-36
2023/01/01 04:09:20;;;;;;;;;;;;;;;2.64;88.05;101229.06;5091805;28;20057;-35
2023/01/01 04:12:02;;;;;;;;;;;;;;;2.42;88.47;101219.34;5091567;28;19919;-35
2023/01/01 04:14:28;;;;;;;;;;;;;;;2.56;89.75;101226.19;5091760;28;19912;-35
2023/01/01 04:16:54;;;;;;;;;;;;;;;2.52;89.58;101222.13;5091179;28;19957;-35
2023/01/01 04:19:19;;;;;;;;;;;;;;;2.52;89.03;101217.69;5091538;28;19938;-36
2023/01/01 04:21:45;;;;;;;;;;;;;;;2.46;90.55;101220.78;5091412;28;20268;-35
2023/01/01 04:24:10;;;;;;;;;;;;;;;2.54;89.36;101233.38;5091633;28;19915;-36
2023/01/01 04:26:35;;;;;;;;;;;;;;;2.68;88.95;101234.94;5090601;28;20400;-36
2023/01/01 04:29:00;;;;;;;;;;;;;;;2.52;89.16;101230.00;5090970;28;19986;-36
2023/01/01 04:31:26;;;;;;;;;;;;;;;2.47;89.64;101232.97;5090804;28;19916;-36
2023/01/01 04:33:54;;;;;;;;;;;;;;;2.62;89.02;101233.63;5091012;28;19912;-36
2023/01/01 04:36:19;;;;;;;;;;;;;;;2.71;88.55;101229.47;5090995;28;20003;-36
2023/01/01 04:38:44;;;;;;;;;;;;;;;2.60;89.02;101229.44;5091528;28;20006;-36
2023/01/01 04:41:10;;;;;;;;;;;;;;;2.40;89.35;101225.66;5090554;28;19912;-37
2023/01/01 04:43:35;;;;;;;;;;;;;;;2.45;89.86;101220.91;5091176;28;20332;-36
2023/01/01 04:46:01;;;;;;;;;;;;;;;2.42;90.31;101221.13;5090987;28;19912;-37
2023/01/01 04:48:27;;;;;;;;;;;;;;;2.49;88.91;101230.22;5090770;28;20365;-36
2023/01/01 04:50:53;;;;;;;;;;;;;;;2.64;89.40;101223.00;5090774;28;19931;-37
2023/01/01 04:53:19;;;;;;;;;;;;;;;2.56;88.41;101226.19;5090770;28;20022;-37
2023/01/01 04:55:44;;;;;;;;;;;;;;;2.71;88.48;101219.78;5090993;28;19912;-36
2023/01/01 04:58:09;;;;;;;;;;;;;;;2.62;88.12;101219.66;5090931;28;20336;-36
2023/01/01 05:00:35;;;;;;;;;;;;;;;2.34;87.95;101219.94;5091122;28;19916;-36
2023/01/01 05:03:00;;;;;;;;;;;;;;;2.34;88.69;101219.94;5090902;28;20599;-36
2023/01/01 05:05:25;;;;;;;;;;;;;;;2.14;89.27;101231.06;5090888;28;20415;-36
2023/01/01 05:07:50;;;;;;;;;;;;;;;2.01;90.99;101232.91;5091139;28;19919;-37
2023/01/01 05:10:16;;;;;;;;;;;;;;;2.40;92.05;101237.03;5091324;28;19916;-36
2023/01/01 05:12:41;;;;;;;;;;;;;;;2.35;91.82;101239.97;5091758;28;19947;-36
2023/01/01 05:15:06;;;;;;;;;;;;;;;2.22;91.67;101244.47;5091699;28;19912;-36
2023/01/01 05:17:32;;;;;;;;;;;;;;;2.15;92.11;101251.97;5091149;28;19979;-36
2023/01/01 05:19:58;;;;;;;;;;;;;;;2.07;92.48;101256.09;5091291;28;19948;-36
2023/01/01 05:22:23;;;;;;;;;;;;;;;2.27;91.65;101258.09;5091529;28;19919;-36
2023/01/01 05:24:49;;;;;;;;;;;;;;;2.20;90.23;101256.03;5091412;28;19916;-37
2023/01/01 05:27:14;;;;;;;;;;;;;;;2.05;92.07;101256.19;5091635;28;19912;-37
2023/01/01 05:29:39;;;;;;;;;;;;;;;2.17;91.67;101262.38;5091371;28;20357;-37
2023/01/01 05:32:04;;;;;;;;;;;;;;;2.34;90.39;101254.09;5091281;28;20426;-37
2023/01/01 05:34:30;;;;;;;;;;;;;;;2.33;90.34;101265.53;5091459;28;19916;-37
2023/01/01 05:36:55;;;;;;;;;;;;;;;2.54;90.30;101270.16;5091555;28;19916;-37
2023/01/01 05:39:20;;;;;;;;;;;;;;;2.48;88.97;101270.63;5094002;28;20307;-37
2023/01/01 05:41:46;;;;;;;;;;;;;;;2.29;89.73;101264.09;5094034;28;20371;-37
2023/01/01 05:44:11;;;;;;;;;;;;;;;2.20;89.44;101262.13;5095663;28;19913;-35
2023/01/01 05:46:36;;;;;;;;;;;;;;;2.13;89.21;101272.25;5095331;28;19935;-35
2023/01/01 05:49:02;;;;;;;;;;;;;;;1.95;90.41;101261.28;5095384;28;19919;-37
2023/01/01 05:51:28;;;;;;;;;;;;;;;2.06;90.46;101270.19;5095044;28;20267;-35
2023/01/01 05:53:54;;;;;;;;;;;;;;;2.27;89.13;101263.34;5095251;28;20348;-36
2023/01/01 05:56:20;;;;;;;;;;;;;;;2.22;88.70;101273.34;5095042;28;20014;-36
2023/01/01 05:58:45;;;;;;;;;;;;;;;2.20;88.49;101277.06;5095291;28;20007;-36
2023/01/01 06:01:12;;;;;;;;;;;;;;;2.14;88.48;101278.34;5095384;28;19913;-36
2023/01/01 06:03:38;;;;;;;;;;;;;;;2.37;86.95;101274.03;5095206;28;20331;-36
2023/01/01 06:06:08;;;;;;;;;;;;;;;2.32;86.78;101276.16;5095132;28;19918;-36
2023/01/01 06:08:33;;;;;;;;;;;;;;;2.17;87.90;101270.25;5094682;28;19962;-42
2023/01/01 06:11:00;;;;;;;;;;;;;;;2.12;88.55;101267.94;5094805;28;19943;-43
2023/01/01 06:13:25;;;;;;;;;;;;;;;2.44;88.72;101264.75;5094831;28;19919;-42
2023/01/01 06:15:54;;;;;;;;;;;;;;;2.82;87.70;101262.81;5094777;28;19912;-43
2023/01/01 06:18:19;;;;;;;;;;;;;;;2.87;88.12;101268.56;5094409;28;19928;-43
2023/01/01 06:20:44;;;;;;;;;;;;;;;2.90;88.49;101263.09;5094867;28;20007;-43
2023/01/01 06:23:10;;;;;;;;;;;;;;;3.31;87.13;101259.06;5094775;28;20362;-43
2023/01/01 06:25:35;;;;;;;;;;;;;;;3.59;85.41;101268.28;5094841;28;19913;-43
2023/01/01 06:28:00;;;;;;;;;;;;;;;3.85;84.87;101257.47;5094564;28;20385;-43
2023/01/01 06:30:25;;;;;;;;;;;;;;;3.89;83.40;101245.72;5093089;28;19912;-45
2023/01/01 06:32:52;;;;;;;;;;;;;;;3.98;82.88;101255.53;5094546;28;19995;-40
2023/01/01 06:35:17;;;;;;;;;;;;;;;4.07;82.30;101256.56;5094248;28;19965;-42
2023/01/01 06:37:42;;;;;;;;;;;;;;;4.15;81.92;101263.84;5094366;28;19916;-43
2023/01/01 06:40:08;;;;;;;;;;;;;;;4.31;81.24;101270.38;5094384;28;20397;-43
2023/01/01 06:42:33;;;;;;;;;;;;;;;4.18;82.32;101266.25;5094513;28;19947;-43
2023/01/01 06:44:58;;;;;;;;;;;;;;;4.44;82.00;101272.03;5094088;28;20256;-43
2023/01/01 06:47:24;;;;;;;;;;;;;;;4.56;80.95;101278.09;5094274;28;19916;-44
2023/01/01 06:49:49;;;;;;;;;;;;;;;4.80;80.49;101281.31;5093566;28;20374;-42
2023/01/01 06:52:14;;;;;;;;;;;;;;;4.93;79.95;101281.16;5094006;28;19912;-44
2023/01/01 06:54:39;;;;;;;;;;;;;;;5.03;79.92;101281.19;5094509;28;19912;-43
2023/01/01 06:57:05;;;;;;;;;;;;;;;5.28;79.68;101272.84;5093874;28;20414;-42
2023/01/01 06:59:30;;;;;;;;;;;;;;;5.42;78.81;101270.81;5094204;28;19970;-42
2023/01/01 07:01:55;;;;;;;;;;;;;;;5.55;78.34;101283.81;5093644;28;19955;-43
2023/01/01 07:04:20;;;;;;;;;;;;;;;5.55;78.67;101286.47;5093756;28;19912;-44
2023/01/01 07:06:46;;;;;;;;;;;;;;;5.75;77.98;101285.56;5093758;28;20303;-43
2023/01/01 07:09:11;;;;;;;;;;;;;;;6.16;77.68;101285.53;5093120;28;20011;-43
2023/01/01 07:11:36;;;;;;;;;;;;;;;6.61;76.59;101291.13;5092115;28;20376;-43
2023/01/01 07:14:02;;;;;;;;;;;;;;;6.50;76.09;101285.97;5093838;28;20029;-42
2023/01/01 07:16:27;;;;;;;;;;;;;;;6.61;75.42;101277.91;5093219;28;19960;-42
2023/01/01 07:18:53;;;;;;;;;;;;;;;6.78;74.86;101286.94;5093729;28;19997;-43
2023/01/01 07:21:29;;;;;;;;;;;;;;;7.01;76.12;101291.94;5093756;28;20340;-43
2023/01/01 07:23:57;;;;;;;;;;;;;;;7.29;74.79;101284.91;5093648;28;19990;-43
2023/01/01 07:26:23;;;;;;;;;;;;;;;7.60;72.82;101290.75;5092098;28;19919;-43
2023/01/01 07:28:49;;;;;;;;;;;;;;;7.81;71.58;101290.53;5093541;28;19912;-42
2023/01/01 07:31:14;;;;;;;;;;;;;;;7.83;70.96;101287.72;5093367;28;19977;-42
2023/01/01 07:33:39;;;;;;;;;;;;;;;8.20;68.92;101289.44;5093304;28;19912;-42
2023/01/01 07:36:05;;;;;;;;;;;;;;;8.71;66.78;101295.09;5093281;28;20284;-43
2023/01/01 07:38:30;;;;;;;;;;;;;;;8.63;67.79;101295.03;5092666;28;19916;-43
2023/01/01 07:40:55;;;;;;;;;;;;;;;8.89;66.16;101292.41;5093329;28;19916;-43
2023/01/01 07:43:20;;;;;;;;;;;;;;;9.05;65.39;101291.69;5093462;28;19912;-43
2023/01/01 07:45:46;;;;;;;;;;;;;;;9.31;65.87;101295.19;5093140;28;19939;-42
2023/01/01 07:48:13;;;;;;;;;;;;;;;9.30;65.02;101296.16;5093037;28;19960;-43
2023/01/01 07:50:39;;;;;;;;;;;;;;;9.32;65.45;101299.50;5093200;28;19920;-44
2023/01/01 07:53:04;;;;;;;;;;;;;;;9.56;64.32;101298.81;5093095;28;20452;-44
2023/01/01 07:55:29;;;;;;;;;;;;;;;9.79;64.03;101304.38;5092980;28;20374;-42
2023/01/01 07:57:55;;;;;;;;;;;;;;;9.80;64.32;101305.22;5092903;28;20439;-43
2023/01/01 08:00:21;;;;;;;;;;;;;;;9.94;63.43;101307.28;5092748;28;19916;-43
2023/01/01 08:02:46;;;;;;;;;;;;;;;10.11;63.50;101308.16;5092058;28;19928;-44
2023/01/01 08:05:12;;;;;;;;;;;;;;;10.39;61.69;101315.06;5092775;28;20360;-44
2023/01/01 08:07:37;;;;;;;;;;;;;;;11.78;70.89;101317.53;5092888;28;20360;-42
2023/01/01 08:10:06;;;;;;;;;;;;;;;12.45;58.56;101322.41;5092660;28;20011;-45
2023/01/01 08:12:31;;;;;;;;;;;;;;;12.43;57.07;101318.22;5092749;28;20053;-42
2023/01/01 08:14:57;;;;;;;;;;;;;;;12.06;58.16;101327.81;5092650;28;19951;-43
2023/01/01 08:17:22;;;;;;;;;;;;;;;12.44;58.54;101330.59;5092504;28;19924;-44
2023/01/01 08:19:48;;;;;;;;;;;;;;;12.66;57.54;101328.91;5092039;28;19916;-43
2023/01/01 08:22:13;;;;;;;;;;;;;;;12.31;55.68;101329.31;5092192;28;19998;-43
2023/01/01 08:24:38;;;;;;;;;;;;;;;12.17;56.80;101327.41;5092769;28;20407;-41
2023/01/01 08:27:04;;;;;;;;;;;;;;;11.82;58.39;101334.88;5092588;28;20420;-42
2023/01/01 08:29:29;;;;;;;;;;;;;;;12.47;55.78;101330.22;5092272;28;19916;-42
2023/01/01 08:31:54;;;;;;;;;;;;;;;12.58;56.24;101334.31;5091011;28;19998;-44
2023/01/01 08:34:20;;;;;;;;;;;;;;;12.55;56.45;101335.53;5092137;28;19963;-44
2023/01/01 08:36:45;;;;;;;;;;;;;;;12.44;56.38;101310.06;5092316;28;19955;-43
2023/01/01 08:39:10;;;;;;;;;;;;;;;12.28;56.60;101331.50;5091892;28;19916;-41
2023/01/01 08:41:36;;;;;;;;;;;;;;;12.35;55.66;101339.66;5091918;28;19919;-43
2023/01/01 08:44:01;;;;;;;;;;;;;;;12.51;55.47;101340.38;5092200;28;20340;-43
2023/01/01 08:46:26;;;;;;;;;;;;;;;12.76;53.64;101336.72;5087897;28;20345;-43
2023/01/01 08:48:51;;;;;;;;;;;;;;;12.76;53.93;101331.38;5080925;28;19916;-42
2023/01/01 08:51:17;;;;;;;;;;;;;;;13.21;52.82;101322.44;5071739;28;20025;-42
2023/01/01 08:53:42;;;;;;;;;;;;;;;13.48;51.08;101328.22;5071905;28;20395;-42
2023/01/01 08:56:08;;;;;;;;;;;;;;;13.28;52.27;101327.88;5071905;28;20361;-42
2023/01/01 08:58:37;;;;;;;;;;;;;;;13.08;52.35;101327.59;5071674;28;19917;-42
2023/01/01 09:01:03;;;;;;;;;;;;;;;12.85;53.19;101327.59;5071491;28;19913;-42
2023/01/01 09:03:28;;;;;;;;;;;;;;;12.80;53.48;101322.81;5071367;28;19918;-36
2023/01/01 09:05:54;;;;;;;;;;;;;;;13.22;51.83;101318.75;5071819;28;19916;-36
2023/01/01 09:08:20;;;;;;;;;;;;;;;13.03;52.16;101314.75;5071337;28;20365;-36
2023/01/01 09:10:45;;;;;;;;;;;;;;;13.05;52.04;101306.56;5071172;28;20376;-36
2023/01/01 09:13:11;;;;;;;;;;;;;;;13.50;51.20;101302.13;5070875;28;19912;-36
2023/01/01 09:15:37;;;;;;;;;;;;;;;13.27;51.95;101294.97;5071622;28;19912;-36
2023/01/01 09:18:02;;;;;;;;;;;;;;;13.27;51.97;101307.53;5070750;28;19994;-37
2023/01/01 09:20:28;;;;;;;;;;;;;;;13.25;51.34;101288.97;5070776;28;19913;-42
2023/01/01 09:22:53;;;;;;;;;;;;;;;13.22;51.72;101286.66;5088448;28;20328;-43
2023/01/01 09:25:18;;;;;;;;;;;;;;;13.07;52.42;101286.66;5090893;28;19912;-43
2023/01/01 09:27:43;;;;;;;;;;;;;;;13.18;52.39;101284.56;5090801;28;19981;-43
2023/01/01 09:30:09;;;;;;;;;;;;;;;13.55;50.83;101278.31;5090225;28;19912;-43
2023/01/01 09:32:34;;;;;;;;;;;;;;;13.55;50.85;101272.94;5090160;28;19919;-42
2023/01/01 09:35:00;;;;;;;;;;;;;;;13.48;51.54;101269.38;5090820;28;20401;-42
2023/01/01 09:37:25;;;;;;;;;;;;;;;13.71;49.75;101265.72;5090319;28;19920;-42
2023/01/01 09:39:51;;;;;;;;;;;;;;;13.89;49.67;101258.16;5090637;28;19923;-36
2023/01/01 09:42:28;;;;;;;;;;;;;;;13.52;50.49;101262.66;5091111;28;19916;-36
2023/01/01 09:44:59;;;;;;;;;;;;;;;13.67;50.90;101255.44;5090857;28;20278;-35
2023/01/01 09:47:27;;;;;;;;;;;;;;;13.86;50.24;101251.34;5090611;28;19912;-37
2023/01/01 09:49:53;;;;;;;;;;;;;;;13.76;51.34;101247.28;5090417;28;19912;-37
2023/01/01 09:52:19;;;;;;;;;;;;;;;13.94;50.34;101244.22;5091419;28;19940;-35
2023/01/01 09:54:56;;;;;;;;;;;;;;;14.20;48.59;101243.66;5091438;28;19969;-37
2023/01/01 09:57:26;;;;;;;;;;;;;;;15.04;48.77;101235.72;5090796;28;19916;-36
2023/01/01 09:59:52;;;;;;;;;;;;;;;14.73;47.16;101246.00;5090617;28;19991;-37
2023/01/01 10:02:35;;;;;;;;;;;;;;;14.97;46.76;101248.25;5090741;28;19999;-37
2023/01/01 10:05:16;;;;;;;;;;;;;;;15.22;46.39;101242.41;5090482;28;20000;-37
2023/01/01 10:07:46;;;;;;;;;;;;;;;14.88;46.69;101245.91;5090463;28;19912;-36
2023/01/01 10:10:34;;;;;;;;;;;;;;;14.66;47.51;101241.44;5090602;28;19912;-36
2023/01/01 10:13:15;;;;;;;;;;;;;;;14.82;48.21;101239.47;5090418;28;19916;-37
2023/01/01 10:15:45;;;;;;;;;;;;;;;14.82;46.59;101234.94;5090505;28;19961;-35
2023/01/01 10:18:19;;;;;;;;;;;;;;;15.10;46.98;101230.56;5087276;28;19932;-37
2023/01/01 10:21:13;;;;;;;;;;;;;;;15.21;46.63;101227.34;5081776;28;19912;-36
2023/01/01 10:23:41;;;;;;;;;;;;;;;15.11;46.29;101225.03;5081770;28;19923;-37
2023/01/01 10:26:10;;;;;;;;;;;;;;;14.74;48.03;101221.69;5084918;28;19919;-37
2023/01/01 10:28:45;;;;;;;;;;;;;;;14.93;45.87;101219.34;5087906;28;20006;-37
2023/01/01 10:31:10;;;;;;;;;;;;;;;14.73;46.78;101220.03;5093059;28;20296;-35
2023/01/01 10:33:36;;;;;;;;;;;;;;;14.58;46.76;101208.56;5093267;28;19911;-37
2023/01/01 10:36:01;;;;;;;;;;;;;;;14.66;46.66;101217.31;5093008;28;19923;-37
2023/01/01 10:38:26;;;;;;;;;;;;;;;14.67;46.73;101215.44;5092829;28;19916;-36
2023/01/01 10:40:55;;;;;;;;;;;;;;;14.57;46.80;101209.63;5092434;28;20383;-36
2023/01/01 10:43:20;;;;;;;;;;;;;;;14.31;48.24;101207.50;5092232;28;19930;-36
2023/01/01 10:45:54;;;;;;;;;;;;;;;14.10;49.04;101206.47;5091989;28;19942;-37
2023/01/01 10:48:24;;;;;;;;;;;;;;;14.26;48.50;101200.06;5091716;28;19920;-37
2023/01/01 10:50:50;;;;;;;;;;;;;;;14.34;48.86;101186.53;5091987;28;19908;-36
2023/01/01 10:53:35;;;;;;;;;;;;;;;14.32;48.99;101182.38;5092238;28;20008;-36
2023/01/01 10:56:00;;;;;;;;;;;;;;;14.48;47.90;101198.16;5091957;28;20475;-37
2023/01/01 10:58:44;;;;;;;;;;;;;;;14.46;47.95;101184.97;5092085;28;20015;-37
2023/01/01 11:01:28;;;;;;;;;;;;;;;14.52;47.90;101187.91;5093219;28;19968;-37
2023/01/01 11:03:55;;;;;;;;;;;;;;;14.76;48.10;101176.78;5093311;28;19919;-36
2023/01/01 11:06:21;;;;;;;;;;;;;;;15.06;47.74;101181.91;5093542;28;19922;-37
2023/01/01 11:08:48;;;;;;;;;;;;;;;15.13;47.53;101174.72;5093405;28;20367;-36
2023/01/01 11:11:40;;;;;;;;;;;;;;;15.17;46.39;101178.69;5093170;28;20065;-36
2023/01/01 11:14:16;;;;;;;;;;;;;;;15.43;45.49;101174.44;5091858;28;19991;-37
2023/01/01 11:16:44;;;;;;;;;;;;;;;15.75;45.64;101169.41;5093263;28;19930;-38
2023/01/01 11:19:22;;;;;;;;;;;;;;;15.71;46.01;101173.50;5093212;28;19916;-37
2023/01/01 11:21:48;;;;;;;;;;;;;;;15.74;45.61;101167.75;5093096;28;19912;-37
2023/01/01 11:24:20;;;;;;;;;;;;;;;15.78;45.14;101167.16;5092991;28;20307;-37
2023/01/01 11:26:46;;;;;;;;;;;;;;;15.48;45.21;101163.94;5092871;28;19916;-38
2023/01/01 11:29:15;;;;;;;;;;;;;;;15.73;44.32;101158.88;5092998;28;20000;-36
2023/01/01 11:31:41;;;;;;;;;;;;;;;15.71;44.41;101158.22;5092718;28;19923;-37
2023/01/01 11:34:27;;;;;;;;;;;;;;;16.02;43.88;101155.00;5092664;28;20305;-37
2023/01/01 11:37:04;;;;;;;;;;;;;;;15.76;45.29;101152.25;5080360;28;19923;-37
2023/01/01 11:39:31;;;;;;;;;;;;;;;15.95;44.56;101151.47;5078078;28;19931;-37
2023/01/01 11:41:57;;;;;;;;;;;;;;;16.16;45.04;101145.09;5077481;28;19969;-37
2023/01/01 11:44:25;;;;;;;;;;;;;;;15.99;44.50;101149.19;5072050;28;20342;-37
2023/01/01 11:46:51;;;;;;;;;;;;;;;15.88;45.09;101142.59;5071705;28;19920;-37
2023/01/01 11:49:24;;;;;;;;;;;;;;;16.05;44.09;101142.19;5072223;28;19917;-37
2023/01/01 11:51:49;;;;;;;;;;;;;;;16.07;44.65;101140.13;5070840;28;20354;-37
2023/01/01 11:54:23;;;;;;;;;;;;;;;16.09;44.25;101146.09;5072018;28;20364;-37
2023/01/01 11:56:51;;;;;;;;;;;;;;;15.94;45.52;101138.28;5070452;28;19919;-37
2023/01/01 11:59:20;;;;;;;;;;;;;;;16.17;44.79;101135.19;5070428;28;20024;-37
2023/01/01 12:01:48;;;;;;;;;;;;;;;16.28;44.34;101133.72;5070577;28;19912;-36
2023/01/01 12:04:19;;;;;;;;;;;;;;;16.16;44.58;101123.63;5070594;28;19913;-37
2023/01/01 12:07:08;;;;;;;;;;;;;;;16.19;45.30;101125.06;5071526;28;19936;-37
2023/01/01 12:09:43;;;;;;;;;;;;;;;16.42;44.63;101122.75;5067600;28;19913;-37
2023/01/01 12:12:17;;;;;;;;;;;;;;;16.05;45.21;101120.69;5070685;28;19922;-37
2023/01/01 12:14:51;;;;;;;;;;;;;;;15.85;45.48;101116.16;5071568;28;19913;-36
2023/01/01 12:17:21;;;;;;;;;;;;;;;15.88;44.75;101114.91;5070522;28;19935;-37
2023/01/01 12:19:54;;;;;;;;;;;;;;;16.10;44.86;101120.91;5071195;28;20304;-36
2023/01/01 12:22:19;;;;;;;;;;;;;;;15.65;45.86;101110.75;5071193;28;19913;-38
2023/01/01 12:24:46;;;;;;;;;;;;;;;15.81;45.72;101107.69;5071286;28;19912;-37
2023/01/01 12:27:15;;;;;;;;;;;;;;;16.22;44.92;101104.00;5071083;28;19923;-38
2023/01/01 12:29:41;;;;;;;;;;;;;;;15.54;45.51;101095.25;5071195;28;20007;-37
2023/01/01 12:32:13;;;;;;;;;;;;;;;15.61;46.13;101098.75;5071008;28;20012;-36
2023/01/01 12:34:57;;;;;;;;;;;;;;;15.74;45.24;101100.66;5071212;28;20334;-38
2023/01/01 12:37:25;;;;;;;;;;;;;;;15.64;45.66;101095.66;5070749;28;19917;-38
2023/01/01 12:40:09;;;;;;;;;;;;;;;15.44;46.45;101093.78;5078274;28;19916;-36
2023/01/01 12:42:44;;;;;;;;;;;;;;;15.42;46.52;101086.94;5091553;28;19912;-37
2023/01/01 12:45:13;;;;;;;;;;;;;;;15.38;46.53;101097.25;5091270;28;20300;-37
2023/01/01 12:47:56;;;;;;;;;;;;;;;15.69;46.42;101092.34;5090824;28;19912;-37
2023/01/01 12:50:39;;;;;;;;;;;;;;;15.40;46.43;101100.56;5091092;28;20335;-37
2023/01/01 12:53:27;;;;;;;;;;;;;;;15.59;47.29;101095.44;5091151;28;20063;-37